Time;durP1;ratioP1;P1;durP2;ratioP2;P2;SDS_P1;SDS_P2;PMS_P1;PMS_P2;Temp;Humidity;BMP_temperature;BMP_pressure;BME280_temperature;BME280_humidity;BME280_pressure;Samples;Min_cycle;Max_cycle;Signal;HPM_P1;HPM_P2
2021/11/27 00:02:21;;;;;;;10.85;1.70;;;;;;;;;;5052654;28;20041;-39
2021/11/27 00:04:48;;;;;;;6.90;2.30;;;;;;;;;;5052531;28;20086;-38
2021/11/27 00:07:15;;;;;;;5.53;1.70;;;;;;;;;;5059736;28;20031;-38
2021/11/27 00:09:43;;;;;;;12.25;1.95;;;;;;;;;;5070094;28;20040;-38
2021/11/27 00:12:10;;;;;;;10.93;2.20;;;;;;;;;;5044647;28;20029;-38
2021/11/27 00:14:37;;;;;;;13.80;1.98;;;;;;;;;;5050754;28;20100;-39
2021/11/27 00:17:04;;;;;;;9.52;1.90;;;;;;;;;;5061944;28;20475;-39
2021/11/27 00:19:32;;;;;;;8.05;2.05;;;;;;;;;;5057007;28;20033;-39
2021/11/27 00:21:59;;;;;;;10.20;2.10;;;;;;;;;;5054116;28;20021;-38
2021/11/27 00:24:26;;;;;;;16.60;3.40;;;;;;;;;;5049946;28;20045;-37
2021/11/27 00:26:53;;;;;;;11.73;2.22;;;;;;;;;;5053239;28;20048;-37
2021/11/27 00:29:22;;;;;;;14.15;2.25;;;;;;;;;;5063768;28;20074;-38
2021/11/27 00:31:50;;;;;;;14.38;1.95;;;;;;;;;;5055699;28;20025;-38
2021/11/27 00:34:17;;;;;;;4.82;1.67;;;;;;;;;;5048323;28;20035;-39
2021/11/27 00:36:45;;;;;;;11.02;2.30;;;;;;;;;;5051472;28;20024;-38
2021/11/27 00:39:12;;;;;;;14.15;2.55;;;;;;;;;;5066655;28;20491;-38
2021/11/27 00:41:39;;;;;;;13.40;2.72;;;;;;;;;;5052710;28;20065;-37
2021/11/27 00:44:06;;;;;;;10.35;2.33;;;;;;;;;;5033534;28;20034;-38
2021/11/27 00:46:33;;;;;;;16.55;2.38;;;;;;;;;;5038463;28;20052;-39
2021/11/27 00:49:00;;;;;;;18.65;3.00;;;;;;;;;;5042027;28;20030;-38
2021/11/27 00:51:28;;;;;;;19.63;3.88;;;;;;;;;;5052403;28;20416;-39
2021/11/27 00:53:55;;;;;;;11.48;3.35;;;;;;;;;;5039951;28;20021;-40
2021/11/27 00:56:22;;;;;;;19.42;2.60;;;;;;;;;;5049331;28;20028;-38
2021/11/27 00:58:49;;;;;;;15.40;2.85;;;;;;;;;;5038576;28;20021;-38
2021/11/27 01:01:24;;;;;;;23.10;3.17;;;;;;;;;;5049353;28;20025;-39
2021/11/27 01:03:52;;;;;;;14.15;3.38;;;;;;;;;;5034223;28;20057;-40
2021/11/27 01:06:21;;;;;;;19.27;3.70;;;;;;;;;;5041176;28;20028;-38
2021/11/27 01:08:50;;;;;;;23.30;4.82;;;;;;;;;;5044612;28;20046;-38
2021/11/27 01:11:28;;;;;;;25.58;5.05;;;;;;;;;;5043366;28;20388;-39
2021/11/27 01:13:57;;;;;;;24.23;5.50;;;;;;;;;;5044610;28;20489;-40
2021/11/27 01:16:26;;;;;;;23.30;4.97;;;;;;;;;;5051255;28;20847;-38
2021/11/27 01:18:54;;;;;;;18.95;4.65;;;;;;;;;;5041244;28;20028;-37
2021/11/27 01:21:23;;;;;;;18.65;4.43;;;;;;;;;;5038847;28;20082;-38
2021/11/27 01:23:50;;;;;;;14.25;3.70;;;;;;;;;;5052168;28;20064;-37
2021/11/27 01:26:18;;;;;;;14.05;4.82;;;;;;;;;;5044898;28;20096;-38
2021/11/27 01:28:45;;;;;;;13.25;5.20;;;;;;;;;;5044447;28;20021;-37
2021/11/27 01:31:13;;;;;;;21.92;5.05;;;;;;;;;;5042540;28;20066;-38
2021/11/27 01:33:40;;;;;;;17.95;4.93;;;;;;;;;;5031067;28;20029;-38
2021/11/27 01:36:07;;;;;;;23.00;6.25;;;;;;;;;;5044274;28;20129;-38
2021/11/27 01:38:34;;;;;;;21.67;6.07;;;;;;;;;;5039120;28;20029;-39
2021/11/27 01:41:01;;;;;;;19.67;6.38;;;;;;;;;;5039751;28;20451;-38
2021/11/27 01:43:29;;;;;;;22.45;5.35;;;;;;;;;;5039118;28;20034;-41
2021/11/27 01:45:56;;;;;;;21.40;5.05;;;;;;;;;;5046511;28;20031;-38
2021/11/27 01:48:23;;;;;;;17.02;4.82;;;;;;;;;;5044183;28;20021;-39
2021/11/27 01:50:50;;;;;;;16.10;5.15;;;;;;;;;;5034522;28;20020;-42
2021/11/27 01:53:17;;;;;;;12.27;4.22;;;;;;;;;;5040956;28;20021;-39
2021/11/27 01:55:45;;;;;;;16.35;3.85;;;;;;;;;;5039238;28;20452;-44
2021/11/27 01:58:12;;;;;;;14.13;4.05;;;;;;;;;;5031685;28;20033;-38
2021/11/27 02:00:41;;;;;;;19.73;4.75;;;;;;;;;;5030961;28;20032;-39
2021/11/27 02:03:08;;;;;;;17.38;4.65;;;;;;;;;;5030927;28;20133;-40
2021/11/27 02:05:36;;;;;;;16.95;4.93;;;;;;;;;;5031696;28;20683;-41
2021/11/27 02:08:03;;;;;;;18.27;4.90;;;;;;;;;;5031675;28;20018;-38
2021/11/27 02:10:30;;;;;;;13.43;4.25;;;;;;;;;;5030959;28;20079;-42
2021/11/27 02:12:58;;;;;;;11.23;4.25;;;;;;;;;;5031613;28;20033;-42
2021/11/27 02:15:24;;;;;;;16.55;4.55;;;;;;;;;;5031039;28;20472;-39
2021/11/27 02:17:51;;;;;;;18.17;3.70;;;;;;;;;;5031358;28;20044;-40
2021/11/27 02:20:19;;;;;;;10.30;2.70;;;;;;;;;;5030262;28;20029;-39
2021/11/27 02:22:46;;;;;;;16.25;3.35;;;;;;;;;;5031332;28;20501;-40
2021/11/27 02:25:14;;;;;;;11.20;2.80;;;;;;;;;;5030895;28;20699;-39
2021/11/27 02:27:46;;;;;;;12.25;2.67;;;;;;;;;;5030735;28;20029;-39
2021/11/27 02:30:14;;;;;;;16.92;2.00;;;;;;;;;;5031516;28;20029;-39
2021/11/27 02:33:03;;;;;;;13.48;2.10;;;;;;;;;;5030428;28;20033;-38
2021/11/27 02:35:30;;;;;;;11.80;1.83;;;;;;;;;;5030410;28;20041;-39
2021/11/27 02:37:58;;;;;;;7.78;1.75;;;;;;;;;;5041575;28;20381;-41
2021/11/27 02:40:25;;;;;;;13.13;1.67;;;;;;;;;;5044818;28;20120;-39
2021/11/27 02:42:52;;;;;;;14.02;1.77;;;;;;;;;;5043740;28;20025;-39
2021/11/27 02:45:20;;;;;;;13.52;1.50;;;;;;;;;;5040279;28;20683;-38
2021/11/27 02:47:47;;;;;;;10.85;1.45;;;;;;;;;;5041633;28;20021;-41
2021/11/27 02:50:14;;;;;;;9.45;1.27;;;;;;;;;;5040680;28;20158;-42
2021/11/27 02:52:42;;;;;;;8.82;0.88;;;;;;;;;;5068300;28;20103;-38
2021/11/27 02:55:10;;;;;;;15.63;1.35;;;;;;;;;;5068696;28;20036;-40
2021/11/27 02:57:38;;;;;;;13.13;1.08;;;;;;;;;;5067711;28;20043;-38
2021/11/27 03:00:10;;;;;;;5.95;0.90;;;;;;;;;;5047483;28;20032;-40
2021/11/27 03:02:37;;;;;;;11.02;1.40;;;;;;;;;;5054517;28;21244;-37
2021/11/27 03:05:06;;;;;;;13.75;1.80;;;;;;;;;;5067290;28;20072;-38
2021/11/27 03:07:34;;;;;;;8.95;1.88;;;;;;;;;;5065586;28;20029;-43
2021/11/27 03:10:01;;;;;;;7.38;1.52;;;;;;;;;;5064022;28;20065;-39
2021/11/27 03:12:28;;;;;;;3.47;1.30;;;;;;;;;;5069026;28;20543;-40
2021/11/27 03:14:55;;;;;;;19.70;1.80;;;;;;;;;;5064790;28;20028;-39
2021/11/27 03:17:22;;;;;;;10.77;1.50;;;;;;;;;;5067745;28;20020;-39
2021/11/27 03:19:49;;;;;;;9.13;1.63;;;;;;;;;;5068349;28;20027;-39
2021/11/27 03:22:22;;;;;;;9.55;1.50;;;;;;;;;;5068537;28;20066;-41
2021/11/27 03:24:49;;;;;;;10.73;1.52;;;;;;;;;;5065840;28;20067;-39
2021/11/27 03:27:16;;;;;;;7.40;1.27;;;;;;;;;;5067596;28;20040;-41
2021/11/27 03:29:43;;;;;;;9.60;1.23;;;;;;;;;;5067179;28;20387;-40
2021/11/27 03:32:12;;;;;;;17.17;1.20;;;;;;;;;;5066505;28;20052;-42
2021/11/27 03:34:39;;;;;;;9.80;1.40;;;;;;;;;;5068071;28;20024;-38
2021/11/27 03:37:06;;;;;;;10.43;1.40;;;;;;;;;;5067944;28;20108;-39
2021/11/27 03:39:33;;;;;;;18.33;2.15;;;;;;;;;;5066205;28;20025;-38
2021/11/27 03:42:01;;;;;;;15.38;1.00;;;;;;;;;;5064413;28;20051;-38
2021/11/27 03:44:28;;;;;;;11.88;1.42;;;;;;;;;;5065758;28;20446;-39
2021/11/27 03:46:55;;;;;;;16.70;1.50;;;;;;;;;;5067032;28;20491;-41
2021/11/27 03:49:25;;;;;;;9.15;1.25;;;;;;;;;;5068389;28;20041;-39
2021/11/27 03:51:53;;;;;;;8.80;1.20;;;;;;;;;;5066432;28;20021;-37
2021/11/27 03:54:20;;;;;;;13.23;1.17;;;;;;;;;;5054327;28;20075;-41
2021/11/27 03:56:47;;;;;;;10.40;1.15;;;;;;;;;;5038707;28;20052;-40
2021/11/27 03:59:15;;;;;;;11.30;1.63;;;;;;;;;;5050419;28;20016;-42
2021/11/27 04:01:42;;;;;;;14.18;1.92;;;;;;;;;;5049521;28;20172;-41
2021/11/27 04:04:11;;;;;;;17.85;1.92;;;;;;;;;;5043544;28;20102;-40
2021/11/27 04:06:39;;;;;;;11.55;1.40;;;;;;;;;;5049177;28;20503;-38
2021/11/27 04:09:08;;;;;;;11.32;1.95;;;;;;;;;;5052846;28;20026;-38
2021/11/27 04:11:35;;;;;;;10.73;1.77;;;;;;;;;;5049883;28;20025;-38
2021/11/27 04:14:02;;;;;;;16.88;2.22;;;;;;;;;;5041729;28;20048;-40
2021/11/27 04:16:31;;;;;;;10.70;1.30;;;;;;;;;;5050834;28;20025;-37
2021/11/27 04:18:58;;;;;;;10.70;1.27;;;;;;;;;;5055032;28;20503;-38
2021/11/27 04:21:25;;;;;;;10.18;1.60;;;;;;;;;;5066884;28;20040;-39
2021/11/27 04:23:52;;;;;;;14.10;1.30;;;;;;;;;;5049254;28;20082;-38
2021/11/27 04:26:20;;;;;;;18.50;1.40;;;;;;;;;;5050648;28;20087;-38
2021/11/27 04:28:48;;;;;;;11.88;1.30;;;;;;;;;;5051405;28;20032;-38
2021/11/27 04:31:18;;;;;;;14.15;1.48;;;;;;;;;;5051336;28;20112;-38
2021/11/27 04:33:50;;;;;;;15.35;3.58;;;;;;;;;;5057223;28;20036;-38
2021/11/27 04:36:17;;;;;;;19.07;2.10;;;;;;;;;;5052367;28;20052;-42
2021/11/27 04:38:44;;;;;;;15.20;2.20;;;;;;;;;;5052211;28;20021;-42
2021/11/27 04:41:11;;;;;;;7.20;1.95;;;;;;;;;;5052344;28;20032;-43
2021/11/27 04:43:38;;;;;;;9.93;2.40;;;;;;;;;;5051463;28;20415;-41
2021/11/27 04:46:05;;;;;;;14.82;2.15;;;;;;;;;;5045503;28;20025;-44
2021/11/27 04:48:32;;;;;;;12.98;2.15;;;;;;;;;;5034073;28;20117;-43
2021/11/27 04:50:59;;;;;;;13.90;2.40;;;;;;;;;;5031725;28;20021;-40
2021/11/27 04:53:26;;;;;;;12.85;2.45;;;;;;;;;;5032562;28;20021;-41
2021/11/27 04:55:53;;;;;;;7.72;2.25;;;;;;;;;;5032510;28;20048;-42
2021/11/27 04:58:21;;;;;;;8.93;2.50;;;;;;;;;;5030462;28;20393;-41
2021/11/27 05:00:50;;;;;;;7.03;2.33;;;;;;;;;;5032619;28;20036;-42
2021/11/27 05:03:17;;;;;;;9.65;2.63;;;;;;;;;;5032068;28;20045;-40
2021/11/27 05:05:44;;;;;;;14.30;2.45;;;;;;;;;;5032481;28;20041;-43
2021/11/27 05:08:11;;;;;;;10.65;1.90;;;;;;;;;;5032049;28;20025;-41
2021/11/27 05:10:39;;;;;;;16.88;2.15;;;;;;;;;;5032542;28;20036;-42
2021/11/27 05:13:06;;;;;;;14.32;1.73;;;;;;;;;;5032941;28;20022;-41
2021/11/27 05:15:33;;;;;;;7.15;1.70;;;;;;;;;;5032782;28;20497;-40
2021/11/27 05:18:00;;;;;;;12.93;1.65;;;;;;;;;;5038720;28;20036;-41
2021/11/27 05:20:28;;;;;;;5.80;1.77;;;;;;;;;;5051132;28;20488;-42
2021/11/27 05:22:55;;;;;;;7.00;1.73;;;;;;;;;;5051557;28;20032;-40
2021/11/27 05:25:22;;;;;;;15.82;1.70;;;;;;;;;;5052238;28;20107;-39
2021/11/27 05:27:49;;;;;;;13.52;1.90;;;;;;;;;;5050685;28;20054;-38
2021/11/27 05:30:16;;;;;;;15.35;2.08;;;;;;;;;;5051814;28;20036;-41
2021/11/27 05:35:25;;;;;;;10.38;1.83;;;;;;;;;;5052393;28;20044;-43
2021/11/27 05:37:52;;;;;;;8.48;2.10;;;;;;;;;;5050911;28;20021;-38
2021/11/27 05:40:19;;;;;;;10.95;1.77;;;;;;;;;;5051977;28;20031;-42
2021/11/27 05:42:46;;;;;;;8.70;1.73;;;;;;;;;;5051457;28;20028;-40
2021/11/27 05:45:13;;;;;;;9.40;1.90;;;;;;;;;;5051637;28;20036;-40
2021/11/27 05:47:41;;;;;;;11.98;2.00;;;;;;;;;;5050970;28;20021;-39
2021/11/27 05:50:08;;;;;;;6.13;1.63;;;;;;;;;;5198263;22;20061;-41
2021/11/27 05:52:35;;;;;;;7.43;2.17;;;;;;;;;;5011745;28;20026;-42
2021/11/27 05:55:04;;;;;;;8.93;1.40;;;;;;;;;;5010467;28;20033;-43
2021/11/27 05:57:31;;;;;;;11.13;1.20;;;;;;;;;;5011265;28;20511;-41
2021/11/27 05:59:59;;;;;;;6.22;1.10;;;;;;;;;;5010284;28;20026;-41
2021/11/27 06:02:26;;;;;;;7.65;1.15;;;;;;;;;;5010702;28;20018;-41
2021/11/27 06:04:53;;;;;;;5.47;1.10;;;;;;;;;;5010153;28;20033;-41
2021/11/27 06:07:20;;;;;;;9.02;1.20;;;;;;;;;;5011212;28;20756;-42
2021/11/27 06:09:47;;;;;;;4.13;0.77;;;;;;;;;;5011001;28;20022;-41
2021/11/27 06:12:14;;;;;;;8.00;1.10;;;;;;;;;;5010888;28;20068;-40
2021/11/27 06:14:41;;;;;;;4.57;1.00;;;;;;;;;;5011332;28;20026;-41
2021/11/27 06:17:08;;;;;;;5.45;0.88;;;;;;;;;;5009992;28;20022;-42
2021/11/27 06:19:35;;;;;;;5.15;0.80;;;;;;;;;;5008005;28;20787;-40
2021/11/27 06:22:02;;;;;;;5.30;0.50;;;;;;;;;;5009727;28;20025;-39
2021/11/27 06:24:29;;;;;;;6.32;0.70;;;;;;;;;;5010016;28;20108;-38
2021/11/27 06:26:56;;;;;;;5.57;0.80;;;;;;;;;;5009889;28;20125;-41
2021/11/27 06:29:23;;;;;;;3.22;0.65;;;;;;;;;;5009770;28;20118;-39
2021/11/27 06:31:50;;;;;;;4.88;0.77;;;;;;;;;;5011034;28;20052;-39
2021/11/27 06:34:17;;;;;;;4.60;0.88;;;;;;;;;;5009447;28;20037;-39
2021/11/27 06:36:44;;;;;;;5.35;0.60;;;;;;;;;;5010858;28;20017;-40
2021/11/27 06:39:11;;;;;;;4.47;0.70;;;;;;;;;;5010611;28;20018;-39
2021/11/27 06:41:38;;;;;;;5.55;0.60;;;;;;;;;;5010397;28;20096;-41
2021/11/27 06:44:05;;;;;;;2.92;0.50;;;;;;;;;;5010128;28;20107;-37
2021/11/27 06:46:32;;;;;;;5.85;0.85;;;;;;;;;;5010708;28;20465;-39
2021/11/27 06:48:59;;;;;;;4.22;0.63;;;;;;;;;;5010112;28;20488;-40
2021/11/27 06:51:27;;;;;;;4.45;0.50;;;;;;;;;;5011229;28;20044;-41
2021/11/27 06:53:54;;;;;;;2.70;0.60;;;;;;;;;;5010419;28;20025;-40
2021/11/27 06:56:21;;;;;;;2.00;0.50;;;;;;;;;;5010259;28;20029;-39
2021/11/27 06:58:48;;;;;;;1.23;0.40;;;;;;;;;;5010589;28;20025;-39
2021/11/27 07:01:15;;;;;;;3.78;0.50;;;;;;;;;;5010782;28;20037;-42
2021/11/27 07:03:42;;;;;;;4.35;0.68;;;;;;;;;;5010892;28;20026;-43
2021/11/27 07:06:09;;;;;;;4.75;0.60;;;;;;;;;;5009946;28;20038;-44
2021/11/27 07:08:36;;;;;;;3.35;0.60;;;;;;;;;;5010066;28;20363;-41
2021/11/27 07:11:03;;;;;;;2.03;0.50;;;;;;;;;;4989422;28;20121;-39
2021/11/27 07:13:30;;;;;;;7.63;0.70;;;;;;;;;;4990772;28;20026;-39
2021/11/27 07:15:57;;;;;;;3.38;0.60;;;;;;;;;;4990330;28;20481;-37
2021/11/27 07:18:24;;;;;;;3.88;1.00;;;;;;;;;;4999591;28;20034;-43
2021/11/27 07:20:51;;;;;;;4.22;0.70;;;;;;;;;;5003177;28;20061;-40
2021/11/27 07:23:18;;;;;;;3.90;0.35;;;;;;;;;;5010623;28;20014;-43
2021/11/27 07:25:46;;;;;;;1.52;0.40;;;;;;;;;;5009795;28;20044;-42
2021/11/27 07:28:13;;;;;;;2.97;0.50;;;;;;;;;;5010288;28;20529;-41
2021/11/27 07:30:40;;;;;;;6.97;0.73;;;;;;;;;;5010610;28;20037;-38
2021/11/27 07:33:07;;;;;;;5.53;0.70;;;;;;;;;;5009979;28;20369;-40
2021/11/27 07:35:34;;;;;;;2.50;0.50;;;;;;;;;;5010615;28;20054;-38
2021/11/27 07:38:01;;;;;;;3.70;0.50;;;;;;;;;;5009432;28;20038;-38
2021/11/27 07:40:28;;;;;;;3.38;0.50;;;;;;;;;;5011215;28;20029;-39
2021/11/27 07:42:57;;;;;;;3.03;0.60;;;;;;;;;;5013665;28;20026;-39
2021/11/27 07:45:25;;;;;;;6.97;0.95;;;;;;;;;;5014537;28;20176;-40
2021/11/27 07:47:52;;;;;;;5.35;0.80;;;;;;;;;;5013038;28;20021;-41
2021/11/27 07:50:19;;;;;;;4.65;0.85;;;;;;;;;;5013938;28;20046;-38
2021/11/27 07:52:46;;;;;;;5.93;0.77;;;;;;;;;;5013366;28;20021;-39
2021/11/27 07:55:14;;;;;;;4.53;0.50;;;;;;;;;;5014290;28;20029;-38
2021/11/27 07:57:41;;;;;;;4.80;0.90;;;;;;;;;;5012877;28;20246;-41
2021/11/27 08:00:08;;;;;;;3.03;0.40;;;;;;;;;;5014159;28;20393;-39
2021/11/27 08:02:36;;;;;;;9.13;0.70;;;;;;;;;;5013278;28;20022;-39
2021/11/27 08:05:04;;;;;;;5.57;0.98;;;;;;;;;;5013537;28;20109;-40
2021/11/27 08:07:32;;;;;;;3.45;0.60;;;;;;;;;;5014090;28;20155;-40
2021/11/27 08:10:00;;;;;;;4.43;0.73;;;;;;;;;;5013064;28;20026;-39
2021/11/27 08:12:27;;;;;;;3.72;0.50;;;;;;;;;;5013498;28;20022;-38
2021/11/27 08:14:54;;;;;;;2.70;0.60;;;;;;;;;;5013578;28;20100;-39
2021/11/27 08:17:21;;;;;;;2.42;0.45;;;;;;;;;;5011990;28;20183;-40
2021/11/27 08:19:48;;;;;;;8.27;0.73;;;;;;;;;;5012848;28;20021;-40
2021/11/27 08:22:15;;;;;;;6.68;0.68;;;;;;;;;;5013393;28;20021;-42
2021/11/27 08:24:42;;;;;;;7.03;0.73;;;;;;;;;;5013134;28;20030;-41
2021/11/27 08:27:10;;;;;;;3.90;0.80;;;;;;;;;;5013132;28;20033;-40
2021/11/27 08:29:37;;;;;;;3.75;0.90;;;;;;;;;;5012791;28;20018;-41
2021/11/27 08:32:04;;;;;;;8.88;1.27;;;;;;;;;;5013575;28;20045;-40
2021/11/27 08:34:31;;;;;;;5.03;0.65;;;;;;;;;;5012882;28;20050;-38
2021/11/27 08:36:58;;;;;;;3.90;0.80;;;;;;;;;;5011610;28;20022;-38
2021/11/27 08:39:25;;;;;;;3.97;0.50;;;;;;;;;;5012552;28;20019;-39
2021/11/27 08:41:52;;;;;;;4.35;0.60;;;;;;;;;;5012875;28;20493;-40
2021/11/27 08:44:19;;;;;;;8.25;0.77;;;;;;;;;;5012925;28;20124;-38
2021/11/27 08:46:46;;;;;;;3.60;0.65;;;;;;;;;;4994111;28;20026;-41
2021/11/27 08:49:12;;;;;;;5.60;0.77;;;;;;;;;;4992653;28;20122;-42
2021/11/27 08:51:40;;;;;;;1.45;0.70;;;;;;;;;;4992936;28;20085;-43
2021/11/27 08:54:07;;;;;;;5.40;0.60;;;;;;;;;;4992786;28;20014;-41
2021/11/27 08:56:35;;;;;;;2.72;0.65;;;;;;;;;;4991962;28;20026;-42
2021/11/27 08:59:02;;;;;;;7.13;0.80;;;;;;;;;;4992342;28;20046;-41
2021/11/27 09:01:31;;;;;;;5.72;0.80;;;;;;;;;;4993374;28;20027;-41
2021/11/27 09:03:59;;;;;;;4.07;0.57;;;;;;;;;;4991252;28;20558;-40
2021/11/27 09:06:26;;;;;;;3.85;0.80;;;;;;;;;;4992973;28;20034;-41
2021/11/27 09:08:53;;;;;;;1.45;0.55;;;;;;;;;;4992112;28;20359;-39
2021/11/27 09:11:22;;;;;;;2.33;0.60;;;;;;;;;;4992712;28;20131;-41
2021/11/27 09:13:49;;;;;;;2.33;0.65;;;;;;;;;;4992236;28;20034;-39
2021/11/27 09:16:17;;;;;;;2.42;0.73;;;;;;;;;;4999699;28;20030;-42
2021/11/27 09:18:44;;;;;;;1.10;0.50;;;;;;;;;;5004116;28;20516;-41
2021/11/27 09:21:11;;;;;;;3.30;0.80;;;;;;;;;;5012629;28;20363;-41
2021/11/27 09:23:38;;;;;;;4.10;0.60;;;;;;;;;;5011592;28;20034;-41
2021/11/27 09:26:05;;;;;;;2.55;0.80;;;;;;;;;;5012209;28;20037;-42
2021/11/27 09:28:34;;;;;;;2.00;0.68;;;;;;;;;;5012040;28;20026;-41
2021/11/27 09:31:01;;;;;;;2.65;0.60;;;;;;;;;;5012163;28;20034;-43
2021/11/27 09:33:29;;;;;;;6.05;1.08;;;;;;;;;;5012542;28;20028;-43
2021/11/27 09:36:08;;;;;;;5.03;0.70;;;;;;;;;;5012105;28;20038;-39
2021/11/27 09:38:38;;;;;;;2.38;0.70;;;;;;;;;;5012246;28;20033;-41
2021/11/27 09:41:11;;;;;;;3.80;0.73;;;;;;;;;;5011716;28;20516;-40
2021/11/27 09:43:42;;;;;;;3.15;0.45;;;;;;;;;;5012050;28;20026;-43
2021/11/27 09:46:10;;;;;;;4.70;0.65;;;;;;;;;;5011670;28;20105;-40
2021/11/27 09:48:40;;;;;;;2.03;0.80;;;;;;;;;;5010121;28;20374;-42
2021/11/27 09:51:08;;;;;;;1.98;0.52;;;;;;;;;;5010334;28;20046;-39
2021/11/27 09:53:37;;;;;;;2.17;0.70;;;;;;;;;;5011903;28;20033;-48
2021/11/27 09:56:05;;;;;;;3.60;0.65;;;;;;;;;;5011571;28;20154;-40
2021/11/27 09:58:32;;;;;;;2.40;0.80;;;;;;;;;;5011151;28;20036;-45
2021/11/27 10:00:59;;;;;;;2.55;0.55;;;;;;;;;;5184027;22;20633;-40
2021/11/27 10:03:28;;;;;;;2.03;0.50;;;;;;;;;;5001884;28;20022;-38
2021/11/27 10:05:55;;;;;;;1.98;0.60;;;;;;;;;;5010557;28;20076;-38
2021/11/27 10:08:22;;;;;;;2.58;0.50;;;;;;;;;;5011151;28;20104;-40
2021/11/27 10:10:49;;;;;;;3.40;0.60;;;;;;;;;;5010781;28;20113;-43
2021/11/27 10:13:20;;;;;;;3.17;0.80;;;;;;;;;;5011337;28;20033;-39
2021/11/27 10:15:47;;;;;;;2.25;0.63;;;;;;;;;;5011062;28;20026;-40
2021/11/27 10:18:15;;;;;;;2.42;0.60;;;;;;;;;;5010134;28;20053;-40
2021/11/27 10:20:42;;;;;;;4.15;0.70;;;;;;;;;;5011291;28;20090;-41
2021/11/27 10:23:09;;;;;;;4.18;0.90;;;;;;;;;;5011111;28;20050;-37
2021/11/27 10:25:38;;;;;;;1.98;0.57;;;;;;;;;;5011266;28;20721;-38
2021/11/27 10:28:10;;;;;;;3.15;0.57;;;;;;;;;;5009970;28;20041;-38
2021/11/27 10:30:48;;;;;;;3.87;0.90;;;;;;;;;;5011616;28;20026;-39
2021/11/27 10:33:16;;;;;;;1.60;0.47;;;;;;;;;;5011113;28;20383;-37
2021/11/27 10:36:09;;;;;;;2.00;0.60;;;;;;;;;;5010747;28;20101;-38
2021/11/27 10:38:41;;;;;;;3.92;0.65;;;;;;;;;;5009164;28;20030;-38
2021/11/27 10:41:09;;;;;;;1.83;0.77;;;;;;;;;;5011013;28;20101;-38
2021/11/27 10:43:36;;;;;;;2.15;0.68;;;;;;;;;;5010808;28;20050;-40
2021/11/27 10:46:03;;;;;;;1.83;0.60;;;;;;;;;;5010877;28;20087;-38
2021/11/27 10:48:31;;;;;;;5.68;0.52;;;;;;;;;;5009730;28;20108;-38
2021/11/27 10:51:00;;;;;;;3.88;0.60;;;;;;;;;;5010695;28;20473;-40
2021/11/27 10:53:28;;;;;;;2.80;0.65;;;;;;;;;;5009613;28;20552;-38
2021/11/27 10:56:03;;;;;;;2.85;0.57;;;;;;;;;;5009786;28;20485;-40
2021/11/27 10:58:30;;;;;;;2.50;0.60;;;;;;;;;;5010160;28;20026;-40
2021/11/27 11:00:59;;;;;;;3.72;0.73;;;;;;;;;;5009054;28;20046;-39
2021/11/27 11:03:33;;;;;;;1.73;0.77;;;;;;;;;;5010494;28;20531;-38
2021/11/27 11:06:01;;;;;;;4.82;0.68;;;;;;;;;;5009072;28;20033;-38
2021/11/27 11:08:33;;;;;;;3.60;0.90;;;;;;;;;;4997373;28;20032;-41
2021/11/27 11:11:01;;;;;;;2.23;0.60;;;;;;;;;;4996838;28;20121;-40
2021/11/27 11:13:32;;;;;;;2.63;0.50;;;;;;;;;;5010713;28;20378;-42
2021/11/27 11:16:09;;;;;;;2.55;0.60;;;;;;;;;;4991594;28;20393;-39
2021/11/27 11:18:36;;;;;;;2.17;0.70;;;;;;;;;;4990052;28;20030;-39
2021/11/27 11:21:05;;;;;;;6.13;1.17;;;;;;;;;;4986735;28;20038;-38
2021/11/27 11:23:36;;;;;;;6.45;0.80;;;;;;;;;;4981125;28;20021;-40
2021/11/27 11:26:03;;;;;;;7.55;0.80;;;;;;;;;;4990208;28;20035;-40
2021/11/27 11:28:32;;;;;;;3.88;0.68;;;;;;;;;;4991227;28;20377;-41
2021/11/27 11:31:04;;;;;;;3.40;0.80;;;;;;;;;;4990697;28;20094;-39
2021/11/27 11:33:33;;;;;;;3.58;0.77;;;;;;;;;;4990739;28;20054;-41
2021/11/27 11:36:01;;;;;;;4.30;1.05;;;;;;;;;;4990279;28;20117;-41
2021/11/27 11:38:28;;;;;;;6.53;1.08;;;;;;;;;;4989344;28;20026;-41
2021/11/27 11:40:55;;;;;;;5.03;0.73;;;;;;;;;;4988676;28;20366;-39
2021/11/27 11:43:22;;;;;;;4.68;1.25;;;;;;;;;;4989754;28;20026;-40
2021/11/27 11:45:50;;;;;;;4.38;1.00;;;;;;;;;;4989822;28;20101;-37
2021/11/27 11:48:21;;;;;;;2.58;1.15;;;;;;;;;;4988916;28;20137;-41
2021/11/27 11:50:50;;;;;;;4.85;0.90;;;;;;;;;;4990129;28;20027;-42
2021/11/27 11:53:29;;;;;;;5.18;0.90;;;;;;;;;;4988829;28;20030;-40
2021/11/27 11:56:00;;;;;;;4.82;0.70;;;;;;;;;;4990912;28;20080;-41
2021/11/27 11:58:31;;;;;;;4.43;0.70;;;;;;;;;;4987238;28;20033;-41
2021/11/27 12:01:01;;;;;;;2.72;0.93;;;;;;;;;;4969552;28;20051;-41
2021/11/27 12:03:32;;;;;;;3.80;0.75;;;;;;;;;;4970685;28;20031;-38
2021/11/27 12:06:07;;;;;;;4.05;1.10;;;;;;;;;;4970365;28;20046;-41
2021/11/27 12:08:49;;;;;;;5.78;0.80;;;;;;;;;;4976571;28;20030;-39
2021/11/27 12:11:34;;;;;;;5.85;1.17;;;;;;;;;;4989007;28;20030;-39
2021/11/27 12:14:01;;;;;;;4.53;0.60;;;;;;;;;;4989794;28;20018;-41
2021/11/27 12:16:28;;;;;;;5.03;1.20;;;;;;;;;;4988624;28;20061;-41
2021/11/27 12:19:07;;;;;;;7.47;1.00;;;;;;;;;;4977418;28;20043;-40
2021/11/27 12:21:34;;;;;;;2.10;0.93;;;;;;;;;;4970672;28;20081;-41
2021/11/27 12:24:01;;;;;;;4.53;1.08;;;;;;;;;;4970382;28;20043;-45
2021/11/27 12:26:28;;;;;;;3.53;0.90;;;;;;;;;;4970481;28;20478;-39
2021/11/27 12:28:56;;;;;;;5.43;0.90;;;;;;;;;;4973523;28;20019;-42
2021/11/27 12:31:24;;;;;;;5.22;0.80;;;;;;;;;;4973589;28;20030;-44
2021/11/27 12:34:02;;;;;;;6.85;0.82;;;;;;;;;;4974576;28;20077;-39
2021/11/27 12:36:32;;;;;;;4.15;0.70;;;;;;;;;;4973598;28;20498;-41
2021/11/27 12:39:07;;;;;;;3.28;0.90;;;;;;;;;;4987474;28;20121;-42
2021/11/27 12:41:35;;;;;;;2.15;0.68;;;;;;;;;;4989908;28;20022;-39
2021/11/27 12:44:31;;;;;;;3.05;1.05;;;;;;;;;;4974293;28;20471;-38
2021/11/27 12:47:02;;;;;;;4.10;0.80;;;;;;;;;;4967668;28;20042;-40
2021/11/27 12:49:32;;;;;;;3.30;0.75;;;;;;;;;;4972522;28;20062;-38
2021/11/27 12:52:19;;;;;;;3.55;1.00;;;;;;;;;;4972649;28;20380;-39
2021/11/27 12:54:53;;;;;;;1.98;0.60;;;;;;;;;;4968951;28;20042;-41
2021/11/27 12:57:21;;;;;;;4.43;1.02;;;;;;;;;;4973562;28;20034;-47
2021/11/27 13:00:02;;;;;;;4.88;1.02;;;;;;;;;;4973177;28;20073;-39
2021/11/27 13:02:29;;;;;;;3.70;0.90;;;;;;;;;;4973026;28;20061;-47
2021/11/27 13:04:56;;;;;;;6.53;0.70;;;;;;;;;;4973907;28;20113;-41
2021/11/27 13:07:26;;;;;;;3.53;0.82;;;;;;;;;;4973820;28;20030;-38
2021/11/27 13:10:03;;;;;;;5.05;0.75;;;;;;;;;;4971952;28;20019;-40
2021/11/27 13:12:31;;;;;;;4.45;0.95;;;;;;;;;;4990250;28;20022;-40
2021/11/27 13:15:17;;;;;;;5.88;1.02;;;;;;;;;;4992620;28;20130;-44
2021/11/27 13:17:44;;;;;;;4.75;0.95;;;;;;;;;;4993136;28;20084;-42
2021/11/27 13:20:11;;;;;;;6.47;1.08;;;;;;;;;;4984119;28;20065;-39
2021/11/27 13:22:38;;;;;;;3.10;0.80;;;;;;;;;;4983810;28;20007;-44
2021/11/27 13:25:09;;;;;;;7.75;0.85;;;;;;;;;;4990398;28;20037;-43
2021/11/27 13:27:37;;;;;;;5.78;1.10;;;;;;;;;;4992352;28;20022;-40
2021/11/27 13:30:11;;;;;;;4.13;0.95;;;;;;;;;;4981440;28;20027;-43
2021/11/27 13:32:48;;;;;;;6.72;1.40;;;;;;;;;;4978429;28;20093;-42
2021/11/27 13:35:22;;;;;;;13.52;1.52;;;;;;;;;;4990758;28;20030;-39
2021/11/27 13:37:54;;;;;;;7.55;1.15;;;;;;;;;;4991285;28;20069;-39
2021/11/27 13:40:23;;;;;;;15.47;1.27;;;;;;;;;;4989213;28;20433;-43
2021/11/27 13:42:52;;;;;;;8.38;1.27;;;;;;;;;;4992473;28;20808;-40
2021/11/27 13:45:22;;;;;;;12.05;1.50;;;;;;;;;;4990973;28;20035;-39
2021/11/27 13:47:55;;;;;;;6.82;1.00;;;;;;;;;;4989994;28;20121;-38
2021/11/27 13:50:22;;;;;;;5.43;1.08;;;;;;;;;;4991269;28;20014;-39
2021/11/27 13:52:50;;;;;;;5.40;1.33;;;;;;;;;;4992347;28;20034;-42
2021/11/27 13:55:18;;;;;;;5.47;1.20;;;;;;;;;;4991808;28;20068;-38
2021/11/27 13:57:46;;;;;;;4.15;0.70;;;;;;;;;;4992407;28;20025;-40
2021/11/27 14:00:21;;;;;;;4.55;0.88;;;;;;;;;;4989575;28;20493;-40
2021/11/27 14:02:48;;;;;;;2.97;0.68;;;;;;;;;;4991369;28;20234;-40
2021/11/27 14:05:15;;;;;;;6.40;0.70;;;;;;;;;;4992330;28;20031;-41
2021/11/27 14:07:44;;;;;;;4.68;0.80;;;;;;;;;;4991827;28;20050;-40
2021/11/27 14:10:29;;;;;;;1.92;0.80;;;;;;;;;;4991997;28;20458;-42
2021/11/27 14:13:03;;;;;;;4.47;0.98;;;;;;;;;;4990800;28;20022;-43
2021/11/27 14:15:59;;;;;;;2.35;0.50;;;;;;;;;;4991322;28;20505;-41
2021/11/27 14:18:26;;;;;;;2.50;0.60;;;;;;;;;;4989942;28;20042;-43
2021/11/27 14:21:13;;;;;;;2.95;0.77;;;;;;;;;;4991020;28;20023;-41
2021/11/27 14:23:43;;;;;;;2.53;0.52;;;;;;;;;;4991300;28;20359;-48
2021/11/27 14:26:15;;;;;;;4.95;0.85;;;;;;;;;;4991894;28;20069;-42
2021/11/27 14:28:47;;;;;;;3.00;0.77;;;;;;;;;;4991058;28;20137;-42
2021/11/27 14:31:24;;;;;;;2.08;0.68;;;;;;;;;;4990862;28;20029;-41
2021/11/27 14:34:01;;;;;;;2.50;0.85;;;;;;;;;;4991058;28;20033;-42
2021/11/27 14:36:30;;;;;;;2.60;0.77;;;;;;;;;;4991377;28;20028;-44
2021/11/27 14:38:58;;;;;;;1.55;0.73;;;;;;;;;;4990964;28;20061;-40
2021/11/27 14:41:27;;;;;;;5.13;0.90;;;;;;;;;;4991087;28;20549;-40
2021/11/27 14:44:01;;;;;;;2.47;0.90;;;;;;;;;;4990941;28;20104;-41
2021/11/27 14:46:33;;;;;;;4.95;0.63;;;;;;;;;;4991513;28;20033;-39
2021/11/27 14:49:16;;;;;;;3.35;0.57;;;;;;;;;;4990549;28;20065;-39
2021/11/27 14:51:44;;;;;;;5.15;0.82;;;;;;;;;;4990167;28;20105;-40